Monk Fryston, United Kingdom
Current Conditions -  °F | °C
As of 11:50 PM on Wednesday 28 Jan 2015 (Local Time) from EGNM Reporting Station
Snow Showers Snow Showers  
Wind Chill: -6°   Ceiling: Unl
Heat Index:   Visibility: 2.5mi
Dew Point: -1°   Wind: 25mph
Humidity: 87%   Direction: 260°W
Pressure: 29.18"   Gusts: 37mph
Location:  53.76°N, 1.24°W
Report Text: EGNM 282350Z 26022G32KT 4000 -SHSN SCT010CB 01/M01 Q0988
Loading
Personal Weather Stations






























Interactive Weather Map New forecast layout! Learn more

10-Day Weather Forecast

Advertisements
Track Severe Weather on mobile